Weather observations for the past three days for
Cocoa Beach, Cape Canaveral Air Force Station Skid Strip
Imperial (Metric)
Date Time (edt) Wind (mph) Vis. (mi.) Weather Sky Cond. Temperature (ºF) Relative Humidity Wind Chill (°F) Heat Index (°F) Pressure Precipitation (in)
Air Dwpt 6 hour altimeter (in) sea level (mb) 1 hr 3 hr 6 hr
Max. Min.
05 18:55 SE 6 10.00 Thunderstorm CLR 75 71.8 90% 74 29.86 1011.5
05 17:55 E 13 1.00 Thunderstorm Heavy Rain OVC032 74.1 68.5 83% 29.89 1012.5 0.44
05 16:55 E 12 10.00 Thunderstorm CLR 86.5 77.5 75% 99 29.85 1011.1
05 15:55 E 9 10.00 A Few Clouds FEW200 90.3 77.7 67% 105 29.86 1011.5
05 13:55 NW 8 10.00 Fair CLR 93.2 74.5 93.2 80.1 55% 104 29.88 1012.1
05 12:55 W 8 10.00 Fair CLR 90.9 76.8 64% 104 29.89 1012.5
05 11:55 W 6 10.00 A Few Clouds FEW200 86 77.9 77% 98 29.92 1013.5
05 10:55 W 8 10.00 A Few Clouds FEW170 FEW200 85.3 76.8 76% 96 29.93 1013.8
05 09:55 W 8 10.00 A Few Clouds FEW180 FEW220 84 75.2 75% 92 29.93 1013.8
05 08:55 SW 5 10.00 Fair CLR 81.3 75.9 84% 88 29.92 1013.5
05 07:55 Calm 10.00 Fair CLR 79.9 75.9 79.9 76.8 88% 85 29.92 1013.5
05 06:55 Calm 10.00 Fair CLR 78.3 74.7 89% 81 29.9 1012.8
05 05:55 SW 5 10.00 Fair CLR 78.4 75.6 91% 82 29.89 1012.5
05 04:55 S 3 10.00 Fair CLR 78.6 75.7 91% 82 29.9 1012.8
05 03:55 S 6 10.00 Fair CLR 78.6 76.3 93% 82 29.89 1012.5
05 02:55 S 5 10.00 Thunderstorm in Vicinity CLR 78.6 76.3 93% 82 29.9 1012.8
05 01:55 SW 5 10.00 Fair CLR 79.7 76.8 81.3 78.6 91% 85 29.92 1013.5
05 00:55 S 5 10.00 Fair CLR 80.2 77.5 92% 87 29.93 1013.8
04 23:55 Calm 10.00 Fair CLR 79.5 76.6 91% 84 29.94 1014.2
04 22:55 SE 3 10.00 Thunderstorm in Vicinity CLR 79 75.7 90% 83 29.95 1014.5
04 21:55 NE 5 10.00 Fair CLR 79 75 88% 83 29.95 1014.5
04 20:55 Calm 10.00 Fair CLR 79.9 75.2 86% 85 29.93 1013.8
04 19:55 W 7 10.00 Mostly Cloudy BKN017 81.5 73.6 89.4 81.5 77% 87 29.94 1014.2
04 18:55 S 9 10.00 Fair CLR 85.3 78.6 81% 98 29.92 1013.5
04 17:55 SE 15 10.00 Fair CLR 87.4 79.2 77% 102 29.89 1012.5
04 16:55 SE 12 10.00 Fair CLR 88.3 78.4 73% 103 29.91 1013.2
04 15:55 SE 14 10.00 Fair CLR 89.1 78.3 71% 104 29.92 1013.5
04 14:55 SE 13 10.00 A Few Clouds FEW200 89.2 78.4 71% 104 29.94 1014.2
04 13:55 SE 12 10.00 A Few Clouds FEW160 FEW190 88 77.7 89.6 80.1 72% 101 29.96 1014.8
04 12:55 SE 6 10.00 A Few Clouds FEW170 FEW200 88.5 77.4 70% 101 29.97 1015.2
04 11:55 S 6 10.00 A Few Clouds FEW200 88.7 76.6 68% 101 29.98 1015.5
04 10:55 S 5 10.00 Fair CLR 88.5 76.5 68% 100 29.98 1015.5
04 09:55 S 6 10.00 Fair CLR 87.4 76.8 71% 99 29.96 1014.8
04 08:55 S 7 10.00 Fair CLR 82.9 80.2 92% 95 29.95 1014.5
04 07:55 Calm 10.00 Fair CLR 79.9 77.9 80.1 77.7 94% 86 29.94 1014.2
04 06:55 S 3 10.00 Fair CLR 78.1 76.1 94% 81 29.93 1013.8
04 05:55 S 3 10.00 Fair CLR 78.4 76.5 94% 82 29.91 1013.2
04 04:55 Calm 9.00 Fair CLR 79.5 77.5 94% 85 29.91 1013.2
04 03:55 Calm 10.00 Fair CLR 79.5 77.2 93% 85 29.9 1012.8
04 02:55 SE 5 10.00 Fair CLR 78.3 75.7 92% 81 29.9 1012.8
04 01:55 Calm 10.00 Fair CLR 79 75.7 82.4 79 90% 83 29.92 1013.5
04 00:55 S 7 10.00 Fair CLR 81 76.6 87% 88 29.94 1014.2
03 23:55 S 9 10.00 Fair CLR 82.4 78.1 87% 92 29.93 1013.8
03 22:55 S 8 10.00 Fair CLR 81.9 77.9 88% 90 29.93 1013.8
03 21:55 SE 7 10.00 Fair CLR 81.7 77.7 88% 90 29.93 1013.8
03 20:55 SE 9 10.00 A Few Clouds FEW170 82.4 77.7 86% 91 29.92 1013.5
03 19:55 SE 7 10.00 Fair CLR 82 77.7 84.4 81 87% 91 29.92 1013.5
03 18:55 SE 7 10.00 Fair CLR 83.5 77.4 82% 93 29.91 1013.2
03 17:55 S 10 10.00 Fair CLR 84.2 77.7 81% 95 29.9 1012.8
03 16:55 SE 9 10.00 Fair CLR 83.5 77.7 83% 94 29.88 1012.1
03 15:55 SE 12 10.00 A Few Clouds FEW150 FEW200 84 77.5 81% 94 29.9 1012.8
03 14:55 E 8 10.00 Fair CLR 83.3 78.6 86% 94 29.92 1013.5
03 13:55 E 8 10.00 Fair CLR 80.8 77.2 82.2 78.3 89% 88 29.94 1014.2 0.14
03 12:55 E 8 10.00 Mostly Cloudy BKN008 79.7 77.4 93% 85 29.94 1014.2 0.02
03 11:55 E 7 10.00 Light Rain CLR 78.3 75.9 93% 81 29.96 1014.8 0.06
03 10:55 E 10 10.00 Light Rain CLR 79 76.5 92% 83 29.96 1014.8 0.04 0.06
03 09:55 E 5 10.00 Light Rain CLR 80.1 77.7 93% 86 29.94 1014.2 0.02
03 08:55 E 3 10.00 Fair CLR 79.5 77.2 93% 85 29.93 1013.8
03 07:55 NE 5 10.00 Thunderstorm in Vicinity FEW100 79.9 77.5 81 78.8 93% 86 29.92 1013.5 0.02
03 06:55 Calm 10.00 Fair CLR 79.5 77 92% 85 29.9 1012.8 0.01
03 05:55 Calm 10.00 Mostly Cloudy FEW021 SCT041 BKN065 79.5 77 92% 85 29.88 1012.1
03 04:55 E 3 10.00 Fair CLR 79.3 76.8 92% 84 29.88 1012.1 0.01
03 03:55 E 3 10.00 Fair CLR 79.7 77.2 92% 85 29.88 1012.1
03 02:55 E 3 10.00 Partly Cloudy SCT038 80.1 77.5 92% 86 29.89 1012.5 0.01
03 01:55 E 5 10.00 Light Drizzle FEW022 80.8 77.9 82.4 79.9 91% 88 29.91 1013.2 0.01 0.01
03 00:55 S 7 10.00 A Few Clouds FEW020 81.1 76.8 87% 88 29.93 1013.8
02 23:55 SE 5 10.00 Fair CLR 79.9 75.9 88% 85 29.94 1014.2
02 22:55 E 6 10.00 Fair CLR 80.4 77.2 90% 87 29.94 1014.2
02 21:55 NE 5 10.00 Fair CLR 81.3 77.7 89% 89 29.94 1014.2
02 20:55 E 6 10.00 Fair CLR 82.2 76.8 84% 90 29.93 1013.8
02 19:55 E 8 10.00 A Few Clouds FEW050 81.9 77.5 88.3 81.9 87% 90 29.92 1013.5
Date Time (edt) Wind (mph) Vis. (mi.) Weather Sky Cond. Air Dwpt Max. Min. Relative Humidity Wind Chill (°F) Heat Index (°F) altimeter (in) sea level (mb) 1 hr 3 hr 6 hr
6 hour
Temperature (ºF) Pressure Precipitation (in)